Ruzaevka, Kazakhstan
Current Conditions -  °F | °C
As of 12:00 PM on Friday 31 Oct 2014 (Local Time) from UACK Reporting Station
Clear Clear  
Wind Chill: 36°   Ceiling: Unl
Heat Index: 43°   Visibility: 6mi
Dew Point: 32°   Wind: 13mph
Humidity: 66%   Direction: 240°WSW
Pressure: 30.24"   Gusts: NA
Location:  52.82°N, 66.97°E
Report Text: UACK 310600Z 24006MPS CAVOK 06/00 Q1024 R20/190065 NOSIG RMKQFE744/0992
Loading
Personal Weather Stations






























Interactive Weather Map
Tropical Storm Tracking
New forecast layout! Learn more

10-Day Weather Forecast

Advertisements
Track Severe Weather on mobile